Time;durP1;ratioP1;P1;durP2;ratioP2;P2;SDS_P1;SDS_P2;PMS_P1;PMS_P2;Temp;Humidity;BMP_temperature;BMP_pressure;BME280_temperature;BME280_humidity;BME280_pressure;Samples;Min_cycle;Max_cycle;Signal;HPM_P1;HPM_P2
2022/08/25 00:02:00;;;;;;;12.93;3.23;;;22.10;99.90;;;;;;4821052;29;20206;-70
2022/08/25 00:04:29;;;;;;;13.77;3.70;;;22.10;99.90;;;;;;4807334;29;20210;-70
2022/08/25 00:06:56;;;;;;;13.77;3.37;;;22.10;99.90;;;;;;4820892;29;20208;-70
2022/08/25 00:09:30;;;;;;;10.17;3.63;;;22.10;99.90;;;;;;4821137;29;20322;-72
2022/08/25 00:11:58;;;;;;;10.67;3.30;;;22.10;99.90;;;;;;4820983;29;20235;-70
2022/08/25 00:14:29;;;;;;;12.53;3.40;;;22.20;99.90;;;;;;4821263;29;20560;-69
2022/08/25 00:16:56;;;;;;;11.00;3.07;;;22.20;99.90;;;;;;4807187;29;20282;-71
2022/08/25 00:19:27;;;;;;;9.80;3.13;;;22.20;99.90;;;;;;4821166;29;20311;-72
2022/08/25 00:22:01;;;;;;;11.33;3.17;;;22.20;99.90;;;;;;4805598;29;20341;-71
2022/08/25 00:24:28;;;;;;;13.13;3.30;;;22.20;99.90;;;;;;4807017;29;20714;-71
2022/08/25 00:26:57;;;;;;;10.80;3.37;;;22.20;99.90;;;;;;4806729;29;20250;-71
2022/08/25 00:29:25;;;;;;;10.93;3.30;;;22.20;99.90;;;;;;4820751;29;20226;-69
2022/08/25 00:31:54;;;;;;;12.10;3.40;;;22.30;99.90;;;;;;4822175;29;20214;-69
2022/08/25 00:34:25;;;;;;;10.53;3.33;;;22.20;99.90;;;;;;4805688;29;20310;-71
2022/08/25 00:36:52;;;;;;;11.23;3.80;;;22.20;99.90;;;;;;4820722;29;20239;-71
2022/08/25 00:39:21;;;;;;;21.97;5.23;;;22.20;99.90;;;;;;4820691;29;20218;-71
2022/08/25 00:41:51;;;;;;;12.13;3.40;;;22.20;99.90;;;;;;4820749;29;20227;-70
2022/08/25 00:44:19;;;;;;;11.13;3.70;;;22.20;99.90;;;;;;4805594;29;20202;-70
2022/08/25 00:46:49;;;;;;;13.43;4.10;;;22.20;99.90;;;;;;4806365;29;20227;-71
2022/08/25 00:49:31;;;;;;;9.77;3.80;;;22.20;99.90;;;;;;4805027;29;20246;-70
2022/08/25 00:52:04;;;;;;;14.63;3.70;;;22.10;99.90;;;;;;4819954;29;20682;-71
2022/08/25 00:54:38;;;;;;;13.67;3.97;;;22.10;99.90;;;;;;4823483;29;20242;-70
2022/08/25 00:57:07;;;;;;;12.10;4.10;;;22.10;99.90;;;;;;4823125;29;20301;-71
2022/08/25 00:59:34;;;;;;;13.07;3.83;;;22.20;99.90;;;;;;4823060;29;20217;-71
2022/08/25 01:02:03;;;;;;;13.57;4.10;;;22.20;99.90;;;;;;4823419;29;20195;-71
2022/08/25 01:04:30;;;;;;;13.07;4.07;;;22.20;99.90;;;;;;4823177;29;20676;-70
2022/08/25 01:06:59;;;;;;;16.63;4.60;;;22.20;99.90;;;;;;4838656;29;20217;-70
2022/08/25 01:09:30;;;;;;;12.80;3.83;;;22.10;99.90;;;;;;4824320;29;20263;-70
2022/08/25 01:11:58;;;;;;;17.20;4.10;;;22.10;99.90;;;;;;4823000;29;20571;-71
2022/08/25 01:14:27;;;;;;;11.00;4.03;;;22.10;99.90;;;;;;4823204;29;20213;-69
2022/08/25 01:16:54;;;;;;;16.13;4.87;;;22.10;99.90;;;;;;4838118;29;20255;-70
2022/08/25 01:19:20;;;;;;;15.37;3.90;;;22.10;99.90;;;;;;4823056;29;20207;-70
2022/08/25 01:21:49;;;;;;;13.53;3.83;;;22.10;99.90;;;;;;4822452;29;20238;-70
2022/08/25 01:24:33;;;;;;;13.70;4.10;;;22.10;99.90;;;;;;4821966;29;20218;-69
2022/08/25 01:27:00;;;;;;;16.93;4.20;;;22.10;99.90;;;;;;4837890;29;20207;-69
2022/08/25 01:29:28;;;;;;;11.40;3.87;;;22.20;99.90;;;;;;4821998;29;20209;-70
2022/08/25 01:31:59;;;;;;;18.03;4.20;;;22.20;99.90;;;;;;4823145;29;20232;-71
2022/08/25 01:34:29;;;;;;;12.93;3.70;;;22.10;99.90;;;;;;4821686;29;20301;-70
2022/08/25 01:36:58;;;;;;;12.13;3.93;;;22.10;99.90;;;;;;4804608;29;20242;-70
2022/08/25 01:39:27;;;;;;;11.70;3.87;;;22.10;99.90;;;;;;4815057;29;20207;-70
2022/08/25 01:42:10;;;;;;;10.13;3.97;;;22.10;99.90;;;;;;4804004;29;20218;-70
2022/08/25 01:44:40;;;;;;;14.23;4.70;;;22.10;99.90;;;;;;4804794;29;20207;-70
2022/08/25 01:47:07;;;;;;;16.53;4.40;;;22.10;99.90;;;;;;4803722;29;20218;-70
2022/08/25 01:49:34;;;;;;;13.10;4.43;;;22.10;99.90;;;;;;4817540;29;20200;-70
2022/08/25 01:52:11;;;;;;;18.07;4.70;;;22.10;99.90;;;;;;4818666;29;20252;-70
2022/08/25 01:54:38;;;;;;;16.43;4.40;;;22.10;99.90;;;;;;4833126;29;20207;-70
2022/08/25 01:57:05;;;;;;;19.57;5.00;;;22.10;99.90;;;;;;4803892;29;20235;-71
2022/08/25 01:59:32;;;;;;;14.13;5.17;;;22.10;99.90;;;;;;4803748;29;20208;-71
2022/08/25 02:01:59;;;;;;;16.77;4.40;;;22.10;99.90;;;;;;4807666;29;20301;-71
2022/08/25 02:04:31;;;;;;;11.53;4.03;;;22.10;99.90;;;;;;4810626;29;20564;-69
2022/08/25 02:07:05;;;;;;;14.83;5.17;;;22.10;99.90;;;;;;4809352;29;20634;-70
2022/08/25 02:09:32;;;;;;;15.47;5.07;;;22.00;99.90;;;;;;4810561;29;20196;-69
2022/08/25 02:11:59;;;;;;;14.33;4.87;;;21.90;99.90;;;;;;4824802;29;20210;-70
2022/08/25 02:14:27;;;;;;;15.97;5.07;;;21.90;99.90;;;;;;4809391;29;20295;-70
2022/08/25 02:16:54;;;;;;;15.00;4.60;;;21.90;99.90;;;;;;4809395;29;20704;-69
2022/08/25 02:19:23;;;;;;;11.87;4.80;;;21.90;99.90;;;;;;4809206;29;20232;-70
2022/08/25 02:21:50;;;;;;;12.77;5.17;;;21.80;99.90;;;;;;4775115;29;1077286;-70
2022/08/25 02:24:18;;;;;;;16.87;5.33;;;21.80;99.90;;;;;;4829370;29;20230;-70
2022/08/25 02:26:45;;;;;;;15.67;5.40;;;21.90;99.90;;;;;;4828182;29;20210;-69
2022/08/25 02:29:12;;;;;;;18.53;5.70;;;21.80;99.90;;;;;;4828494;29;20211;-69
2022/08/25 02:31:39;;;;;;;13.43;5.20;;;21.90;99.90;;;;;;4843133;29;20238;-70
2022/08/25 02:34:08;;;;;;;14.33;5.17;;;21.90;99.90;;;;;;4829168;29;20282;-69
2022/08/25 02:36:36;;;;;;;11.53;5.20;;;21.80;99.90;;;;;;4843292;29;20246;-69
2022/08/25 02:39:05;;;;;;;14.67;5.10;;;21.80;99.90;;;;;;4829208;29;20661;-70
2022/08/25 02:41:32;;;;;;;14.33;5.17;;;21.80;99.90;;;;;;4843213;29;20648;-70
2022/08/25 02:44:01;;;;;;;29.23;6.90;;;21.80;99.90;;;;;;4828509;29;20549;-69
2022/08/25 02:46:29;;;;;;;18.43;5.30;;;21.80;99.90;;;;;;4843231;29;20588;-69
2022/08/25 02:48:57;;;;;;;18.07;5.63;;;21.80;99.90;;;;;;4829632;29;20222;-69
2022/08/25 02:51:24;;;;;;;16.33;5.60;;;21.80;99.90;;;;;;4828207;29;20645;-69
2022/08/25 02:53:51;;;;;;;13.33;5.37;;;21.80;99.90;;;;;;4842996;29;20215;-69
2022/08/25 02:56:19;;;;;;;21.27;5.63;;;21.80;99.90;;;;;;4827843;29;20653;-69
2022/08/25 02:58:46;;;;;;;15.50;5.40;;;21.80;99.90;;;;;;4843432;29;20212;-69
2022/08/25 03:01:15;;;;;;;16.77;5.40;;;21.80;99.90;;;;;;4827773;29;20207;-69
2022/08/25 03:03:44;;;;;;;18.60;6.20;;;21.80;99.90;;;;;;4843179;29;20213;-70
2022/08/25 03:06:14;;;;;;;16.07;5.50;;;21.80;99.90;;;;;;4827943;29;20198;-71
2022/08/25 03:08:41;;;;;;;14.77;5.73;;;21.80;99.90;;;;;;4827803;29;20213;-70
2022/08/25 03:11:08;;;;;;;21.97;5.83;;;21.70;99.90;;;;;;4842896;29;20223;-70
2022/08/25 03:13:36;;;;;;;20.80;6.00;;;21.70;99.90;;;;;;4826056;29;20252;-71
2022/08/25 03:16:04;;;;;;;18.43;5.97;;;21.70;99.90;;;;;;4825030;29;20222;-70
2022/08/25 03:18:38;;;;;;;22.33;6.00;;;21.80;99.90;;;;;;4824848;29;20210;-70
2022/08/25 03:21:06;;;;;;;21.30;5.80;;;21.70;99.90;;;;;;4825618;29;20665;-69
2022/08/25 03:23:33;;;;;;;26.93;6.67;;;21.70;99.90;;;;;;4809614;29;20217;-69
2022/08/25 03:28:45;;;;;;;19.20;6.23;;;21.70;99.90;;;;;;4809412;29;20206;-69
2022/08/25 03:31:12;;;;;;;16.67;6.20;;;21.70;99.90;;;;;;4839834;29;20235;-69
2022/08/25 03:33:39;;;;;;;17.67;5.80;;;21.70;99.90;;;;;;4839787;29;20238;-68
2022/08/25 03:36:07;;;;;;;20.53;6.30;;;21.70;99.90;;;;;;4809279;29;20329;-69
2022/08/25 03:38:37;;;;;;;17.00;6.23;;;21.70;99.90;;;;;;4825616;29;20198;-69
2022/08/25 03:41:21;;;;;;;15.90;6.10;;;21.70;99.90;;;;;;4825760;29;20199;-69
2022/08/25 03:43:49;;;;;;;15.70;6.63;;;21.70;99.90;;;;;;4839743;29;20298;-69
2022/08/25 03:46:19;;;;;;;18.00;6.23;;;21.70;99.90;;;;;;4825508;29;20234;-69
2022/08/25 03:48:47;;;;;;;23.17;6.50;;;21.70;99.90;;;;;;4809240;29;20628;-69
2022/08/25 03:51:30;;;;;;;20.40;6.67;;;21.70;99.90;;;;;;4809073;29;20237;-69
2022/08/25 03:53:57;;;;;;;17.13;6.37;;;21.70;99.90;;;;;;4825017;29;20194;-70
2022/08/25 03:56:26;;;;;;;18.47;6.43;;;21.70;99.90;;;;;;4839278;29;20649;-69
2022/08/25 03:58:54;;;;;;;21.00;6.13;;;21.70;99.90;;;;;;4840052;29;20306;-69
2022/08/25 04:01:22;;;;;;;24.17;7.00;;;21.70;99.90;;;;;;4839194;29;20568;-69
2022/08/25 04:03:49;;;;;;;20.33;6.70;;;21.60;99.90;;;;;;4825248;29;20641;-69
2022/08/25 04:06:17;;;;;;;20.23;6.53;;;21.70;99.90;;;;;;4839302;29;20218;-70
2022/08/25 04:08:45;;;;;;;16.47;6.30;;;21.70;99.90;;;;;;4808767;29;20239;-69
2022/08/25 04:11:16;;;;;;;21.83;6.60;;;21.70;99.90;;;;;;4825140;29;20215;-69
2022/08/25 04:13:45;;;;;;;22.50;6.40;;;21.70;99.90;;;;;;4825144;29;20290;-69
2022/08/25 04:16:21;;;;;;;23.60;7.00;;;21.70;99.90;;;;;;4825210;29;20610;-69
2022/08/25 04:18:48;;;;;;;23.47;6.83;;;21.70;99.90;;;;;;4825182;29;20270;-69
2022/08/25 04:21:17;;;;;;;22.27;6.80;;;21.60;99.90;;;;;;4824502;29;20230;-70
2022/08/25 04:23:47;;;;;;;17.40;6.97;;;21.60;99.90;;;;;;4824526;29;20568;-69
2022/08/25 04:26:33;;;;;;;24.23;7.23;;;21.60;99.90;;;;;;4808060;29;20210;-69
2022/08/25 04:29:02;;;;;;;23.60;7.23;;;21.70;99.90;;;;;;4838890;29;20207;-69
2022/08/25 04:31:30;;;;;;;24.77;7.27;;;21.70;99.90;;;;;;4824940;29;20579;-69
2022/08/25 04:33:57;;;;;;;28.57;7.43;;;21.70;99.90;;;;;;4838562;29;20248;-69
2022/08/25 04:36:24;;;;;;;26.40;7.70;;;21.70;99.90;;;;;;4808771;29;20237;-69
2022/08/25 04:38:51;;;;;;;19.73;7.40;;;21.70;99.90;;;;;;4824974;29;20195;-69
2022/08/25 04:41:21;;;;;;;19.83;7.23;;;21.70;99.90;;;;;;4808365;29;20207;-70
2022/08/25 04:43:48;;;;;;;22.23;7.20;;;21.70;99.90;;;;;;4808179;29;20203;-70
2022/08/25 04:46:21;;;;;;;24.87;7.93;;;21.80;99.90;;;;;;4808236;29;20211;-70
2022/08/25 04:48:49;;;;;;;24.87;7.50;;;21.80;99.90;;;;;;4808683;29;20195;-70
2022/08/25 04:51:19;;;;;;;23.57;7.70;;;21.90;99.90;;;;;;4838475;29;20763;-70
2022/08/25 04:53:46;;;;;;;32.53;8.10;;;21.90;99.90;;;;;;4824911;29;20270;-70
2022/08/25 04:56:15;;;;;;;35.50;8.67;;;21.90;99.90;;;;;;4838309;29;20676;-69
2022/08/25 04:58:44;;;;;;;27.43;7.83;;;22.00;99.90;;;;;;4838589;29;20202;-69
2022/08/25 05:01:14;;;;;;;30.63;8.20;;;22.10;99.90;;;;;;4838372;29;20573;-69
2022/08/25 05:03:42;;;;;;;24.17;7.70;;;22.10;99.90;;;;;;4807994;29;20238;-69
2022/08/25 05:06:09;;;;;;;30.93;8.07;;;22.10;99.90;;;;;;4837671;29;20241;-74
2022/08/25 05:08:42;;;;;;;31.97;7.90;;;22.10;99.90;;;;;;4808008;29;20210;-74
2022/08/25 05:11:14;;;;;;;22.10;7.67;;;22.20;99.90;;;;;;4808035;29;20273;-75
2022/08/25 05:13:42;;;;;;;29.13;7.67;;;22.20;99.90;;;;;;4807936;29;20213;-74
2022/08/25 05:16:12;;;;;;;28.13;8.27;;;22.20;99.90;;;;;;4808080;29;20210;-74
2022/08/25 05:18:39;;;;;;;23.33;7.70;;;22.30;99.90;;;;;;4807920;29;20202;-74
2022/08/25 05:21:10;;;;;;;26.53;8.23;;;22.30;99.90;;;;;;4837942;29;20214;-74
2022/08/25 05:23:38;;;;;;;28.80;8.10;;;22.40;99.90;;;;;;4824354;29;20603;-74
2022/08/25 05:26:18;;;;;;;21.07;7.07;;;22.50;99.90;;;;;;4838106;29;20207;-74
2022/08/25 05:28:49;;;;;;;25.23;7.90;;;22.60;99.90;;;;;;4838166;29;20247;-74
2022/08/25 05:31:16;;;;;;;31.70;8.47;;;22.70;99.90;;;;;;4824134;29;20678;-74
2022/08/25 05:33:43;;;;;;;25.93;8.60;;;22.80;99.90;;;;;;4824086;29;20529;-74
2022/08/25 05:36:12;;;;;;;29.57;8.87;;;22.90;99.90;;;;;;4837353;29;20693;-74
2022/08/25 05:38:39;;;;;;;27.13;8.63;;;23.10;99.90;;;;;;4807176;29;20210;-74
2022/08/25 05:41:10;;;;;;;35.67;9.07;;;23.20;99.90;;;;;;4837742;29;20225;-74
2022/08/25 05:43:39;;;;;;;29.30;8.40;;;23.30;99.90;;;;;;4837693;29;20213;-74
2022/08/25 05:46:07;;;;;;;27.90;8.33;;;23.30;99.90;;;;;;4837621;29;20206;-74
2022/08/25 05:48:35;;;;;;;27.17;8.60;;;23.50;99.90;;;;;;4807935;29;20241;-74
2022/08/25 05:51:04;;;;;;;27.10;8.83;;;23.60;99.90;;;;;;4807103;29;20317;-74
2022/08/25 05:53:33;;;;;;;29.10;8.70;;;23.70;99.90;;;;;;4807152;29;20725;-74
2022/08/25 05:55:59;;;;;;;24.77;8.30;;;23.80;99.90;;;;;;4824042;29;20213;-74
2022/08/25 05:58:28;;;;;;;23.50;7.60;;;23.90;99.90;;;;;;4837861;29;20293;-74
2022/08/25 06:00:57;;;;;;;28.17;8.00;;;24.00;99.90;;;;;;4823778;29;20203;-74
2022/08/25 06:03:24;;;;;;;26.40;8.40;;;24.10;99.90;;;;;;4837416;29;20207;-74
2022/08/25 06:05:51;;;;;;;26.75;8.38;;;24.10;99.90;;;;;;4806958;29;20207;-74
2022/08/25 06:08:18;;;;;;;31.60;8.70;;;24.10;99.90;;;;;;4837606;29;20213;-74
2022/08/25 06:10:51;;;;;;;25.73;8.18;;;24.20;99.90;;;;;;4823077;29;20285;-73
2022/08/25 06:13:17;;;;;;;27.95;9.05;;;24.30;99.90;;;;;;4823775;29;20199;-73
2022/08/25 06:15:59;;;;;;;30.80;8.50;;;24.40;99.90;;;;;;4837954;29;20218;-73
2022/08/25 06:18:26;;;;;;;23.67;8.13;;;24.50;99.90;;;;;;4822497;29;20598;-74
2022/08/25 06:20:53;;;;;;;22.33;7.78;;;24.70;99.90;;;;;;4837220;29;20213;-74
2022/08/25 06:23:20;;;;;;;36.80;9.07;;;24.80;99.90;;;;;;4820669;29;20601;-74
2022/08/25 06:25:51;;;;;;;29.13;8.18;;;25.00;99.90;;;;;;4822390;29;20207;-74
2022/08/25 06:28:19;;;;;;;28.95;8.45;;;25.20;99.90;;;;;;4822394;29;20213;-73
2022/08/25 06:30:46;;;;;;;27.45;8.13;;;25.40;99.90;;;;;;4837198;29;20221;-73
2022/08/25 06:33:14;;;;;;;26.10;8.00;;;25.50;99.90;;;;;;4821945;29;20225;-73
2022/08/25 06:35:42;;;;;;;25.65;8.00;;;25.60;99.90;;;;;;4821950;29;20326;-74
2022/08/25 06:38:10;;;;;;;20.95;7.90;;;25.70;99.90;;;;;;4837437;29;20207;-74
2022/08/25 06:40:37;;;;;;;23.88;7.65;;;25.80;99.90;;;;;;4821715;29;20552;-74
2022/08/25 06:43:07;;;;;;;33.15;8.30;;;25.90;99.90;;;;;;4837028;29;20235;-75
2022/08/25 06:45:34;;;;;;;27.13;8.25;;;26.00;99.90;;;;;;4821856;29;20206;-75
2022/08/25 06:48:01;;;;;;;30.63;8.50;;;26.10;99.90;;;;;;4823032;29;20203;-75
2022/08/25 06:50:28;;;;;;;28.02;7.90;;;26.20;99.90;;;;;;4824789;29;20206;-74
2022/08/25 06:52:55;;;;;;;31.17;7.63;;;26.30;99.90;;;;;;4826193;29;20707;-74
2022/08/25 06:55:22;;;;;;;29.77;8.30;;;26.40;99.90;;;;;;4825302;29;20230;-73
2022/08/25 06:57:52;;;;;;;24.83;7.47;;;26.50;99.90;;;;;;4841089;29;20226;-74
2022/08/25 07:00:21;;;;;;;21.65;7.00;;;26.60;99.90;;;;;;4824776;29;20237;-74
2022/08/25 07:02:57;;;;;;;26.00;7.95;;;26.70;99.90;;;;;;4817035;29;20255;-77
2022/08/25 07:05:24;;;;;;;29.58;7.72;;;26.90;99.90;;;;;;4824811;29;20199;-75
2022/08/25 07:08:00;;;;;;;29.02;7.60;;;27.00;99.90;;;;;;4824879;29;20203;-75
2022/08/25 07:10:27;;;;;;;25.70;7.30;;;27.10;99.90;;;;;;4824802;29;20238;-74
2022/08/25 07:12:57;;;;;;;26.13;8.38;;;27.20;99.90;;;;;;4840403;29;20219;-76
2022/08/25 07:15:24;;;;;;;34.95;9.90;;;27.30;99.90;;;;;;4810292;29;20203;-78
2022/08/25 07:17:51;;;;;;;22.90;7.43;;;27.30;99.90;;;;;;4825818;29;20285;-73
2022/08/25 07:20:20;;;;;;;30.17;8.27;;;27.40;99.90;;;;;;4824781;29;20301;-74
2022/08/25 07:22:52;;;;;;;18.20;6.90;;;27.50;99.90;;;;;;4825676;29;20265;-79
2022/08/25 07:25:19;;;;;;;23.80;7.60;;;27.80;99.90;;;;;;4826058;29;20665;-78
2022/08/25 07:27:46;;;;;;;20.23;7.03;;;28.00;99.90;;;;;;4809561;29;20664;-76
2022/08/25 07:30:17;;;;;;;18.58;7.13;;;28.20;99.90;;;;;;4825658;29;20206;-76
2022/08/25 07:32:44;;;;;;;20.58;7.30;;;28.30;99.90;;;;;;4839680;29;20250;-74
2022/08/25 07:35:14;;;;;;;24.48;6.95;;;28.40;99.90;;;;;;4809243;29;20322;-75
2022/08/25 07:37:51;;;;;;;23.15;6.82;;;28.60;99.90;;;;;;4795336;29;20233;-76
2022/08/25 07:40:25;;;;;;;22.52;7.07;;;28.70;99.90;;;;;;4825439;29;20191;-77
2022/08/25 07:42:55;;;;;;;22.80;6.65;;;28.80;99.90;;;;;;4809213;29;20209;-79
2022/08/25 07:45:29;;;;;;;19.50;7.05;;;29.00;99.90;;;;;;4839525;29;20210;-77
2022/08/25 07:47:58;;;;;;;20.15;6.88;;;29.20;99.90;;;;;;4825993;29;20207;-75
2022/08/25 07:50:28;;;;;;;36.45;8.90;;;29.40;99.90;;;;;;4825567;29;20203;-77
2022/08/25 07:52:56;;;;;;;26.48;7.32;;;29.40;99.90;;;;;;4825776;29;20226;-75
2022/08/25 07:55:24;;;;;;;25.95;7.15;;;29.40;99.90;;;;;;4839631;29;20259;-76
2022/08/25 07:57:54;;;;;;;28.23;7.25;;;29.30;99.90;;;;;;4809256;29;20242;-75
2022/08/25 08:00:26;;;;;;;21.13;6.78;;;29.20;99.90;;;;;;4808798;29;20263;-74
2022/08/25 08:02:55;;;;;;;18.45;6.47;;;29.40;99.90;;;;;;4808909;29;20629;-74
2022/08/25 08:05:23;;;;;;;27.05;8.18;;;29.50;99.90;;;;;;4794132;29;20227;-74
2022/08/25 08:07:51;;;;;;;18.85;6.53;;;29.90;99.90;;;;;;4825364;29;20572;-75
2022/08/25 08:10:24;;;;;;;20.15;6.80;;;30.20;99.90;;;;;;4808907;29;20209;-75
2022/08/25 08:13:11;;;;;;;15.70;6.25;;;30.30;99.90;;;;;;4811054;29;20631;-75
2022/08/25 08:15:44;;;;;;;19.00;6.95;;;30.40;99.90;;;;;;4808482;29;20230;-74
2022/08/25 08:18:23;;;;;;;16.17;6.65;;;30.30;99.90;;;;;;4808508;29;20207;-74
2022/08/25 08:20:50;;;;;;;23.85;7.05;;;30.10;99.90;;;;;;4838809;29;20206;-74
2022/08/25 08:23:27;;;;;;;23.33;7.40;;;30.20;99.90;;;;;;4824558;29;20295;-73
2022/08/25 08:26:00;;;;;;;19.10;6.28;;;30.40;99.90;;;;;;4838809;29;20211;-76
2022/08/25 08:28:27;;;;;;;14.50;6.22;;;30.70;99.90;;;;;;4808337;29;20269;-74
2022/08/25 08:30:54;;;;;;;25.70;6.80;;;30.80;99.90;;;;;;4838722;29;20230;-74
2022/08/25 08:33:24;;;;;;;20.52;7.30;;;30.90;99.90;;;;;;4808163;29;20697;-76
2022/08/25 08:36:06;;;;;;;18.63;7.20;;;31.00;99.90;;;;;;4838532;29;20226;-75
2022/08/25 08:38:43;;;;;;;18.52;6.38;;;31.20;99.90;;;;;;4808441;29;20222;-75
2022/08/25 08:44:44;;;;;;;20.35;6.45;;;32.20;99.90;;;;;;4808783;29;20285;-73
2022/08/25 08:47:48;;;;;;;19.33;6.45;;;33.20;99.90;;;;;;4808636;29;20302;-75
2022/08/25 08:50:42;;;;;;;18.92;6.60;;;33.50;99.90;;;;;;4824786;29;20294;-75
2022/08/25 08:53:44;;;;;;;19.83;6.45;;;33.60;99.90;;;;;;4768554;30;20578;-76
2022/08/25 08:56:21;;;;;;;16.80;6.18;;;34.10;99.90;;;;;;4768677;30;20213;-75
2022/08/25 08:58:51;;;;;;;19.83;6.18;;;34.60;98.60;;;;;;4768731;30;20204;-74
2022/08/25 09:01:45;;;;;;;17.48;6.05;;;34.90;97.60;;;;;;4768642;30;20576;-75
2022/08/25 09:04:32;;;;;;;19.65;6.00;;;35.00;96.70;;;;;;4768385;30;20212;-78
2022/08/25 09:07:02;;;;;;;22.48;5.88;;;35.30;95.70;;;;;;4768429;30;20236;-75
2022/08/25 09:09:33;;;;;;;17.08;6.18;;;35.30;94.80;;;;;;4753461;30;20301;-78
2022/08/25 09:12:26;;;;;;;22.67;7.88;;;35.30;94.20;;;;;;4752386;30;20229;-72
2022/08/25 09:15:20;;;;;;;16.52;5.90;;;34.90;93.40;;;;;;4753403;30;20231;-74
2022/08/25 09:17:48;;;;;;;19.17;6.20;;;34.80;93.60;;;;;;4767961;30;20216;-73
2022/08/25 09:20:53;;;;;;;16.70;6.15;;;35.10;93.50;;;;;;4767893;30;20745;-73
2022/08/25 09:23:41;;;;;;;20.73;6.22;;;34.80;92.80;;;;;;4767789;30;20310;-74
2022/08/25 09:26:46;;;;;;;22.15;9.30;;;35.30;92.70;;;;;;4767758;30;20201;-73
2022/08/25 09:29:21;;;;;;;15.38;6.30;;;35.50;92.30;;;;;;4704659;30;20297;-77
2022/08/25 09:31:56;;;;;;;15.18;5.65;;;35.80;90.30;;;;;;4750084;30;20229;-73
2022/08/25 09:34:31;;;;;;;17.85;5.75;;;36.00;89.20;;;;;;4749745;30;20210;-77
2022/08/25 09:36:59;;;;;;;11.02;5.07;;;36.10;87.00;;;;;;4735259;30;20304;-76
2022/08/25 09:39:26;;;;;;;17.42;5.53;;;36.10;83.70;;;;;;4735429;30;20216;-73
2022/08/25 09:41:59;;;;;;;15.35;5.40;;;36.30;83.40;;;;;;4749701;30;20271;-73
2022/08/25 09:44:43;;;;;;;14.90;5.35;;;36.60;82.70;;;;;;4749975;30;20629;-74
2022/08/25 09:47:29;;;;;;;13.02;4.70;;;36.80;82.10;;;;;;4735234;30;20217;-73
2022/08/25 09:50:01;;;;;;;13.18;4.35;;;37.00;73.20;;;;;;4720985;30;20205;-72
2022/08/25 09:52:35;;;;;;;14.02;4.35;;;37.20;71.60;;;;;;4735542;30;20261;-78
2022/08/25 09:55:14;;;;;;;12.27;4.50;;;37.20;68.20;;;;;;4735211;30;20210;-73
2022/08/25 09:57:47;;;;;;;15.55;4.68;;;37.50;68.10;;;;;;4749757;30;20225;-74
2022/08/25 10:00:20;;;;;;;12.52;4.38;;;37.40;65.10;;;;;;4739175;30;20565;-71
2022/08/25 10:03:22;;;;;;;11.73;4.13;;;37.80;64.50;;;;;;4761998;29;20350;-77
2022/08/25 10:06:12;;;;;;;12.23;3.95;;;37.70;63.90;;;;;;4808156;29;20218;-73
2022/08/25 10:08:42;;;;;;;10.68;3.70;;;37.90;62.60;;;;;;4837956;29;20302;-72
2022/08/25 10:11:13;;;;;;;10.55;3.65;;;37.90;58.90;;;;;;4807080;29;20255;-85
2022/08/25 10:13:42;;;;;;;15.52;4.20;;;38.10;60.00;;;;;;4807454;29;20229;-80
2022/08/25 10:16:24;;;;;;;12.57;4.00;;;38.30;57.80;;;;;;4807397;29;20210;-74
2022/08/25 10:19:09;;;;;;;11.10;3.95;;;38.00;58.10;;;;;;4807674;29;20230;-71
2022/08/25 10:21:40;;;;;;;12.10;4.75;;;38.10;58.50;;;;;;4823870;29;20235;-77
2022/08/25 10:24:10;;;;;;;11.25;3.75;;;38.30;58.60;;;;;;4810823;29;20320;-74
2022/08/25 10:26:57;;;;;;;9.52;4.00;;;38.70;57.90;;;;;;4828182;29;20207;-80
2022/08/25 10:29:48;;;;;;;8.90;3.35;;;38.70;55.80;;;;;;4827935;29;20205;-76
2022/08/25 10:32:32;;;;;;;13.82;3.40;;;38.50;53.90;;;;;;4811187;29;20233;-76
2022/08/25 10:35:12;;;;;;;7.95;2.83;;;38.50;53.40;;;;;;4826749;29;20214;-79
2022/08/25 10:37:41;;;;;;;13.77;3.33;;;38.50;51.90;;;;;;4841181;29;20221;-71
2022/08/25 10:40:32;;;;;;;15.35;3.30;;;38.50;52.90;;;;;;4840739;29;20228;-71
2022/08/25 10:42:59;;;;;;;9.15;3.30;;;38.70;53.20;;;;;;4810323;29;20637;-73
2022/08/25 10:45:43;;;;;;;12.63;3.25;;;39.00;52.60;;;;;;4826882;29;20202;-72
2022/08/25 10:48:31;;;;;;;20.95;4.13;;;39.30;52.20;;;;;;4810642;29;20217;-72
2022/08/25 10:51:32;;;;;;;9.73;2.90;;;39.50;50.90;;;;;;4810367;29;20200;-73
2022/08/25 10:54:29;;;;;;;7.45;2.45;;;39.70;48.40;;;;;;4810226;29;20315;-74
2022/08/25 10:57:28;;;;;;;11.13;3.22;;;39.50;47.50;;;;;;4829756;29;20207;-73
2022/08/25 11:00:12;;;;;;;8.93;2.75;;;39.60;46.30;;;;;;4798732;29;20217;-75
2022/08/25 11:02:54;;;;;;;7.38;2.90;;;39.70;46.80;;;;;;4843956;29;20207;-70
2022/08/25 11:05:30;;;;;;;6.78;2.55;;;39.70;46.50;;;;;;4827555;29;20267;-72
2022/08/25 11:08:24;;;;;;;9.43;2.85;;;39.70;46.50;;;;;;4840926;29;20678;-71
2022/08/25 11:11:00;;;;;;;10.23;2.88;;;40.00;46.70;;;;;;4826361;29;20270;-72
2022/08/25 11:13:43;;;;;;;6.78;2.80;;;40.20;44.80;;;;;;4826116;29;20729;-81
2022/08/25 11:16:17;;;;;;;6.75;3.00;;;40.30;45.40;;;;;;4809750;29;20210;-77
2022/08/25 11:19:19;;;;;;;8.20;3.03;;;40.40;43.80;;;;;;4825986;29;20223;-82
2022/08/25 11:22:09;;;;;;;11.02;3.13;;;40.10;44.00;;;;;;4759474;30;20326;-69
2022/08/25 11:24:41;;;;;;;9.90;2.60;;;40.00;44.10;;;;;;4770126;30;20588;-77
2022/08/25 11:27:15;;;;;;;11.05;2.80;;;40.20;44.80;;;;;;4755208;30;20236;-73
2022/08/25 11:29:51;;;;;;;8.02;2.63;;;40.40;44.40;;;;;;4770207;30;20201;-76
2022/08/25 11:32:22;;;;;;;6.95;2.70;;;40.80;44.20;;;;;;4755146;30;20232;-71
2022/08/25 11:34:51;;;;;;;7.35;2.55;;;40.90;43.60;;;;;;4769074;30;20312;-71
2022/08/25 11:37:26;;;;;;;6.18;2.55;;;40.70;42.00;;;;;;4755617;30;20208;-82
2022/08/25 11:40:09;;;;;;;5.28;2.50;;;41.00;41.70;;;;;;4755230;30;20760;-79
2022/08/25 11:42:54;;;;;;;6.53;2.58;;;41.60;41.40;;;;;;4769280;30;20205;-75
2022/08/25 11:45:46;;;;;;;7.53;2.30;;;42.30;40.50;;;;;;4754727;30;20271;-72
2022/08/25 11:48:38;;;;;;;6.95;2.20;;;42.80;40.10;;;;;;4769917;30;20232;-77
2022/08/25 11:51:25;;;;;;;8.48;2.47;;;42.50;38.30;;;;;;4769551;30;20205;-77
2022/08/25 11:54:35;;;;;;;5.10;2.47;;;42.70;38.20;;;;;;4754606;30;20301;-77
2022/08/25 11:57:07;;;;;;;7.20;2.58;;;42.80;38.00;;;;;;4754683;30;20212;-73
2022/08/25 11:59:50;;;;;;;8.77;2.17;;;43.20;37.80;;;;;;4769288;30;20668;-82
2022/08/25 12:02:44;;;;;;;7.55;2.45;;;43.70;37.00;;;;;;4806156;29;20202;-71
2022/08/25 12:05:23;;;;;;;8.25;2.42;;;43.70;36.90;;;;;;4824104;29;20732;-71
2022/08/25 12:08:37;;;;;;;5.93;2.55;;;43.40;36.80;;;;;;4824516;29;20206;-75
2022/08/25 12:11:01;;;;;;;6.88;2.40;;;43.90;36.30;;;;;;4824214;29;20195;-77
2022/08/25 12:13:49;;;;;;;6.45;2.83;;;43.80;36.40;;;;;;4825116;29;20230;-70
2022/08/25 12:16:34;;;;;;;4.85;2.60;;;43.60;36.60;;;;;;4824416;29;20199;-71
2022/08/25 12:19:23;;;;;;;6.22;2.75;;;43.20;36.80;;;;;;4824172;29;20263;-72
2022/08/25 12:21:53;;;;;;;8.00;3.05;;;43.10;37.70;;;;;;4815171;29;20243;-69
2022/08/25 12:24:42;;;;;;;6.32;2.85;;;42.70;37.90;;;;;;4794998;29;20290;-75
2022/08/25 12:27:54;;;;;;;8.75;3.03;;;41.80;38.80;;;;;;4802080;29;20290;-70
2022/08/25 12:30:47;;;;;;;4.50;2.70;;;41.80;39.00;;;;;;4819357;29;20235;-71
2022/08/25 12:33:37;;;;;;;8.88;2.85;;;42.00;38.70;;;;;;4832436;29;20223;-70
2022/08/25 12:36:07;;;;;;;11.30;3.08;;;42.00;38.70;;;;;;4808645;29;20227;-70
2022/08/25 12:38:44;;;;;;;10.23;2.83;;;42.00;39.00;;;;;;4808924;29;20207;-72
2022/08/25 12:41:29;;;;;;;9.90;2.92;;;42.00;39.40;;;;;;4824535;29;20199;-72
2022/08/25 12:44:31;;;;;;;11.90;3.10;;;41.60;39.70;;;;;;4809219;29;20650;-70
2022/08/25 12:47:11;;;;;;;6.00;2.85;;;41.50;39.30;;;;;;4839110;29;20262;-79
2022/08/25 12:49:38;;;;;;;5.38;2.80;;;41.40;39.50;;;;;;4810509;29;20263;-75
2022/08/25 12:52:16;;;;;;;8.55;2.78;;;41.10;40.70;;;;;;4839015;29;20571;-74
2022/08/25 12:54:58;;;;;;;6.85;2.92;;;41.40;39.70;;;;;;4825485;29;20214;-78
2022/08/25 12:57:45;;;;;;;9.77;3.20;;;41.40;39.70;;;;;;4838825;29;20207;-79
2022/08/25 13:00:27;;;;;;;8.35;2.88;;;41.80;39.40;;;;;;4839035;29;20661;-76
2022/08/25 13:03:08;;;;;;;7.93;2.95;;;41.60;39.10;;;;;;4838672;29;20716;-73
2022/08/25 13:06:04;;;;;;;9.95;3.38;;;41.20;39.40;;;;;;4824807;29;20233;-75
2022/08/25 13:09:07;;;;;;;7.35;3.17;;;41.10;39.90;;;;;;4807975;29;20207;-69
2022/08/25 13:11:52;;;;;;;7.22;3.10;;;40.70;39.20;;;;;;4808221;29;20732;-71
2022/08/25 13:14:35;;;;;;;6.72;3.22;;;40.20;39.80;;;;;;4824408;29;20250;-79
2022/08/25 13:17:04;;;;;;;6.93;2.70;;;39.90;40.60;;;;;;4824444;29;20679;-72
2022/08/25 13:19:37;;;;;;;13.70;3.15;;;39.80;41.00;;;;;;4838397;29;20660;-70